Time;durP1;ratioP1;P1;durP2;ratioP2;P2;SDS_P1;SDS_P2;PMS_P1;PMS_P2;Temp;Humidity;BMP_temperature;BMP_pressure;BME280_temperature;BME280_humidity;BME280_pressure;Samples;Min_cycle;Max_cycle;Signal;HPM_P1;HPM_P2
2022/05/19 00:01:22;;;;;;;7.33;4.83;;;;;;;20.78;75.77;99542.91;5074416;28;20450;-75
2022/05/19 00:03:50;;;;;;;5.50;5.00;;;;;;;20.81;75.24;99537.13;5074936;28;20525;-76
2022/05/19 00:06:17;;;;;;;5.30;4.77;;;;;;;20.85;75.30;99539.53;5074973;28;20423;-77
2022/05/19 00:08:43;;;;;;;6.47;5.67;;;;;;;20.89;75.07;99533.59;5073492;28;20478;-77
2022/05/19 00:11:15;;;;;;;5.90;5.30;;;;;;;20.94;74.68;99531.28;5074630;28;20431;-77
2022/05/19 00:13:42;;;;;;;6.57;4.70;;;;;;;20.95;74.19;99537.59;5074516;28;20471;-77
2022/05/19 00:16:09;;;;;;;7.00;4.53;;;;;;;21.10;73.35;99533.28;5074546;28;20439;-77
2022/05/19 00:18:37;;;;;;;7.10;4.53;;;;;;;21.10;72.88;99546.09;5073002;28;20431;-77
2022/05/19 00:21:06;;;;;;;6.37;4.77;;;;;;;20.99;73.08;99541.75;5073921;28;20454;-77
2022/05/19 00:23:33;;;;;;;5.37;4.77;;;;;;;21.11;72.65;99547.81;5073908;28;20439;-77
2022/05/19 00:26:00;;;;;;;5.80;4.73;;;;;;;21.16;72.12;99543.56;5074112;28;20429;-76
2022/05/19 00:28:26;;;;;;;4.80;4.40;;;;;;;21.10;72.65;99546.09;5074034;28;20478;-77
2022/05/19 00:30:53;;;;;;;6.53;5.03;;;;;;;21.13;71.73;99541.16;5073560;28;20518;-76
2022/05/19 00:33:19;;;;;;;5.47;4.30;;;;;;;21.12;72.39;99549.53;5074240;28;20911;-78
2022/05/19 00:35:46;;;;;;;5.40;4.60;;;;;;;20.99;73.24;99544.47;5074374;28;20433;-77
2022/05/19 00:38:15;;;;;;;6.47;4.43;;;;;;;20.93;73.93;99537.75;5074043;28;20461;-76
2022/05/19 00:40:47;;;;;;;5.63;4.50;;;;;;;20.73;75.23;99533.44;5073748;28;20522;-78
2022/05/19 00:43:14;;;;;;;7.00;4.43;;;;;;;20.73;75.62;99530.72;5073682;28;20435;-77
2022/05/19 00:45:48;;;;;;;5.90;4.67;;;;;;;20.70;75.44;99528.31;5073935;28;20450;-76
2022/05/19 00:48:20;;;;;;;5.73;4.80;;;;;;;20.78;75.25;99523.78;5073277;28;20475;-76
2022/05/19 00:50:50;;;;;;;5.47;5.03;;;;;;;20.72;75.22;99523.53;5073380;28;20466;-77
2022/05/19 00:53:29;;;;;;;5.93;5.00;;;;;;;20.64;75.88;99523.44;5073963;28;20907;-77
2022/05/19 00:55:58;;;;;;;5.43;4.37;;;;;;;20.60;76.47;99526.50;5091414;28;20899;-76
2022/05/19 00:58:27;;;;;;;4.83;4.30;;;;;;;20.74;75.78;99524.25;5093574;28;20532;-77
2022/05/19 01:00:55;;;;;;;7.60;5.00;;;;;;;20.80;75.60;99529.06;5089138;28;20504;-77
2022/05/19 01:03:23;;;;;;;8.43;5.10;;;;;;;20.68;75.58;99530.31;5072527;28;20447;-77
2022/05/19 01:05:53;;;;;;;4.87;4.47;;;;;;;20.80;75.10;99529.06;5073669;28;20431;-77
2022/05/19 01:08:26;;;;;;;7.20;4.50;;;;;;;20.67;76.12;99521.28;5073007;28;20470;-77
2022/05/19 01:10:54;;;;;;;5.67;5.17;;;;;;;20.63;76.24;99524.47;5072136;28;20442;-76
2022/05/19 01:13:22;;;;;;;5.77;4.93;;;;;;;20.44;77.57;99523.53;5073071;28;20429;-77
2022/05/19 01:15:52;;;;;;;5.10;4.60;;;;;;;20.31;78.67;99528.53;5073081;28;20435;-76
2022/05/19 01:18:19;;;;;;;7.73;5.03;;;;;;;20.30;78.86;99524.91;5073381;28;20435;-76
2022/05/19 01:20:47;;;;;;;5.73;4.70;;;;;;;20.17;79.80;99533.50;5072313;28;20435;-76
2022/05/19 01:23:21;;;;;;;5.50;5.00;;;;;;;20.04;80.92;99535.72;5072993;28;20428;-76
2022/05/19 01:25:58;;;;;;;7.30;4.60;;;;;;;20.07;80.82;99540.88;5073496;28;20421;-76
2022/05/19 01:28:27;;;;;;;9.37;5.10;;;;;;;20.09;81.06;99533.41;5072999;28;20598;-76
2022/05/19 01:30:53;;;;;;;5.40;4.70;;;;;;;20.14;80.61;99532.94;5071847;28;20439;-76
2022/05/19 01:33:20;;;;;;;5.57;5.07;;;;;;;20.08;81.18;99534.44;5072887;28;20429;-76
2022/05/19 01:35:47;;;;;;;6.33;5.73;;;;;;;20.15;81.25;99526.47;5072745;28;20534;-77
2022/05/19 01:38:18;;;;;;;5.23;4.73;;;;;;;20.24;80.96;99535.59;5072647;28;20435;-77
2022/05/19 01:41:00;;;;;;;5.80;5.07;;;;;;;20.19;81.10;99533.34;5072472;28;20809;-77
2022/05/19 01:43:36;;;;;;;7.60;5.50;;;;;;;20.12;81.71;99529.50;5072591;28;20523;-77
2022/05/19 01:46:19;;;;;;;5.87;5.07;;;;;;;20.16;81.78;99536.38;5072693;28;20450;-77
2022/05/19 01:48:51;;;;;;;7.90;5.43;;;;;;;20.19;81.59;99531.47;5072073;28;20467;-77
2022/05/19 01:51:26;;;;;;;6.03;5.53;;;;;;;20.24;81.35;99532.88;5072370;28;20831;-76
2022/05/19 01:54:02;;;;;;;9.47;5.83;;;;;;;20.33;80.22;99523.78;5071852;28;20447;-76
2022/05/19 01:56:34;;;;;;;6.33;5.63;;;;;;;20.29;80.69;99525.09;5072379;28;20437;-76
2022/05/19 01:59:13;;;;;;;5.80;5.30;;;;;;;20.31;80.22;99507.53;5072218;28;20433;-77
2022/05/19 02:01:44;;;;;;;7.33;5.40;;;;;;;20.32;80.10;99525.63;5072305;28;20430;-77
2022/05/19 02:04:19;;;;;;;7.63;5.80;;;;;;;20.33;79.68;99524.63;5072285;28;20431;-77
2022/05/19 02:06:49;;;;;;;6.33;5.60;;;;;;;20.33;79.62;99527.38;5072171;28;20407;-77
2022/05/19 02:09:23;;;;;;;7.60;5.53;;;;;;;20.30;79.91;99526.81;5072562;28;20475;-76
2022/05/19 02:11:54;;;;;;;5.47;5.07;;;;;;;20.17;80.94;99525.31;5072217;28;20423;-75
2022/05/19 02:14:27;;;;;;;5.87;5.27;;;;;;;20.04;82.09;99534.88;5071975;28;20419;-78
2022/05/19 02:16:55;;;;;;;5.87;5.33;;;;;;;19.94;83.11;99537.63;5071356;28;21020;-79
2022/05/19 02:19:28;;;;;;;6.10;5.50;;;;;;;19.94;82.62;99540.38;5072070;28;20419;-77
2022/05/19 02:21:56;;;;;;;8.00;5.50;;;;;;;19.97;82.51;99532.75;5072432;28;20437;-77
2022/05/19 02:24:26;;;;;;;7.07;5.40;;;;;;;19.93;83.37;99542.25;5072094;28;20786;-75
2022/05/19 02:26:53;;;;;;;7.20;5.27;;;;;;;19.70;85.05;99541.78;5071938;28;20431;-78
2022/05/19 02:29:26;;;;;;;5.67;5.17;;;;;;;19.46;87.48;99530.44;5072247;28;20478;-76
2022/05/19 02:31:53;;;;;;;5.90;5.30;;;;;;;19.27;89.46;99528.63;5073334;28;20434;-76
2022/05/19 02:34:20;;;;;;;6.73;6.03;;;;;;;19.25;89.50;99527.91;5076399;28;20944;-77
2022/05/19 02:36:47;;;;;;;6.83;5.93;;;;;;;19.32;89.11;99524.44;5075624;28;20930;-77
2022/05/19 02:39:14;;;;;;;5.90;5.40;;;;;;;19.46;88.14;99520.38;5076265;28;20419;-76
2022/05/19 02:41:40;;;;;;;5.77;4.90;;;;;;;19.48;87.77;99534.75;5076145;28;20431;-76
2022/05/19 02:44:07;;;;;;;5.50;5.00;;;;;;;19.26;89.42;99541.41;5075488;28;20449;-78
2022/05/19 02:46:35;;;;;;;6.70;5.67;;;;;;;19.35;89.28;99535.06;5075941;28;20426;-77
2022/05/19 02:49:02;;;;;;;6.03;5.53;;;;;;;19.41;88.90;99530.91;5076012;28;20973;-76
2022/05/19 02:51:30;;;;;;;5.90;5.40;;;;;;;19.38;89.15;99536.66;5075476;28;20471;-76
2022/05/19 02:53:57;;;;;;;6.60;5.90;;;;;;;19.29;89.93;99522.03;5074961;28;20790;-78
2022/05/19 02:56:23;;;;;;;6.20;5.60;;;;;;;19.46;88.09;99528.56;5075437;28;20445;-77
2022/05/19 02:58:50;;;;;;;6.97;5.20;;;;;;;19.44;87.80;99522.41;5075359;28;20427;-77
2022/05/19 03:01:16;;;;;;;5.70;5.20;;;;;;;19.55;86.96;99518.63;5075260;28;20437;-76
2022/05/19 03:03:44;;;;;;;6.30;5.70;;;;;;;19.50;87.42;99519.09;5075015;28;20427;-76
2022/05/19 03:06:11;;;;;;;6.15;5.53;;;;;;;19.51;86.96;99512.59;5075562;28;20533;-76
2022/05/19 03:08:37;;;;;;;6.67;6.17;;;;;;;19.55;86.53;99511.31;5075393;28;20239;-77
2022/05/19 03:11:04;;;;;;;6.13;5.50;;;;;;;19.52;86.39;99508.03;5074972;28;20434;-77
2022/05/19 03:13:30;;;;;;;6.63;5.80;;;;;;;19.36;88.34;99512.22;5075384;28;20419;-78
2022/05/19 03:15:57;;;;;;;9.07;5.83;;;;;;;19.40;87.84;99515.50;5074405;28;20449;-76
2022/05/19 03:18:24;;;;;;;6.50;5.90;;;;;;;19.28;88.96;99520.28;5075155;28;20797;-78
2022/05/19 03:20:52;;;;;;;6.10;5.50;;;;;;;19.16;90.29;99521.47;5075462;28;20426;-75
2022/05/19 03:23:19;;;;;;;6.00;5.40;;;;;;;19.17;90.18;99523.19;5075077;28;20434;-77
2022/05/19 03:25:45;;;;;;;6.17;5.67;;;;;;;19.19;89.93;99523.91;5074045;28;20439;-76
2022/05/19 03:28:14;;;;;;;6.23;5.63;;;;;;;19.28;89.16;99524.88;5074909;28;20441;-77
2022/05/19 03:30:40;;;;;;;6.83;6.20;;;;;;;19.35;88.39;99529.59;5075090;28;20897;-77
2022/05/19 03:33:07;;;;;;;11.43;6.60;;;;;;;19.49;87.24;99533.75;5074567;28;20918;-77
2022/05/19 03:35:34;;;;;;;8.00;6.10;;;;;;;19.50;86.96;99532.75;5074877;28;20430;-78
2022/05/19 03:38:02;;;;;;;7.77;6.00;;;;;;;19.34;87.95;99530.63;5073617;28;20435;-76
2022/05/19 03:40:29;;;;;;;7.87;7.07;;;;;;;19.14;89.89;99532.53;5074907;28;20427;-77
2022/05/19 03:42:56;;;;;;;6.70;5.73;;;;;;;19.10;90.63;99527.50;5073766;28;20439;-76
2022/05/19 03:45:22;;;;;;;7.90;6.80;;;;;;;18.90;92.36;99533.00;5075117;28;20445;-77
2022/05/19 03:47:49;;;;;;;7.20;6.50;;;;;;;18.87;93.08;99538.72;5074662;28;20443;-76
2022/05/19 03:50:15;;;;;;;8.10;6.50;;;;;;;19.02;92.46;99536.44;5074427;28;20212;-75
2022/05/19 03:52:43;;;;;;;8.60;6.20;;;;;;;19.10;91.68;99543.88;5074950;28;20272;-76
2022/05/19 03:55:13;;;;;;;7.07;6.38;;;;;;;19.21;91.02;99542.88;5074562;28;20294;-76
2022/05/19 03:57:42;;;;;;;6.85;6.13;;;;;;;19.23;90.42;99547.16;5074026;28;20192;-77
2022/05/19 04:00:10;;;;;;;7.73;6.90;;;;;;;19.22;90.80;99545.47;5074447;28;20279;-77
2022/05/19 04:02:37;;;;;;;7.60;6.90;;;;;;;19.14;91.14;99535.25;5074398;28;20771;-76
2022/05/19 04:05:05;;;;;;;7.97;7.13;;;;;;;19.02;92.29;99528.25;5074722;28;20431;-76
2022/05/19 04:07:31;;;;;;;7.55;6.80;;;;;;;18.63;96.13;99536.41;5074006;28;20519;-77
2022/05/19 04:09:58;;;;;;;9.68;6.63;;;;;;;18.71;96.25;99538.41;5073329;28;20231;-76
2022/05/19 04:12:26;;;;;;;7.38;6.68;;;;;;;19.15;92.27;99542.44;5073829;28;20198;-76
2022/05/19 04:14:53;;;;;;;10.70;7.13;;;;;;;19.23;91.27;99546.31;5074237;28;20208;-77
2022/05/19 04:17:19;;;;;;;7.07;6.37;;;;;;;18.96;93.43;99556.94;5073816;28;20435;-75
2022/05/19 04:19:46;;;;;;;6.78;6.07;;;;;;;18.96;93.32;99553.38;5074053;28;20469;-75
2022/05/19 04:22:12;;;;;;;6.38;5.78;;;;;;;19.08;92.54;99562.25;5074314;28;20224;-76
2022/05/19 04:24:39;;;;;;;8.73;6.72;;;;;;;19.24;90.66;99559.78;5074119;28;20210;-75
2022/05/19 04:27:06;;;;;;;8.07;7.28;;;;;;;19.42;89.29;99564.50;5074154;28;20536;-76
2022/05/19 04:29:34;;;;;;;10.30;6.80;;;;;;;19.63;86.92;99570.66;5073637;28;20223;-76
2022/05/19 04:32:01;;;;;;;7.97;6.77;;;;;;;19.64;87.14;99557.84;5073460;28;20428;-76
2022/05/19 04:34:27;;;;;;;7.50;6.70;;;;;;;19.49;87.75;99563.78;5073765;28;20427;-76
2022/05/19 04:36:54;;;;;;;6.97;6.03;;;;;;;19.54;88.29;99566.09;5073413;28;20438;-76
2022/05/19 04:39:21;;;;;;;7.23;6.53;;;;;;;19.25;90.26;99564.25;5073408;28;20430;-77
2022/05/19 04:41:48;;;;;;;7.28;6.50;;;;;;;19.16;91.63;99552.34;5073543;28;20423;-77
2022/05/19 04:44:14;;;;;;;6.40;5.80;;;;;;;19.23;91.40;99565.41;5070437;28;20203;-77
2022/05/19 04:46:42;;;;;;;7.23;6.53;;;;;;;19.32;90.26;99559.09;5052849;28;20428;-76
2022/05/19 04:49:09;;;;;;;9.60;6.97;;;;;;;19.42;89.93;99564.50;5053279;28;20550;-76
2022/05/19 04:51:36;;;;;;;8.00;6.47;;;;;;;19.56;88.86;99566.81;5052818;28;20479;-76
2022/05/19 04:54:02;;;;;;;11.07;7.63;;;;;;;19.68;87.63;99573.81;5052677;28;20427;-76
2022/05/19 04:56:30;;;;;;;11.60;7.60;;;;;;;19.68;86.98;99564.75;5053388;28;20424;-75
2022/05/19 04:58:57;;;;;;;8.80;8.00;;;;;;;19.75;86.47;99566.75;5053155;28;20937;-75
2022/05/19 05:01:24;;;;;;;14.30;6.60;;;;;;;19.71;87.16;99567.22;5053023;28;20892;-76
2022/05/19 05:03:52;;;;;;;8.30;7.47;;;;;;;19.92;85.99;99575.19;5072036;28;20912;-76
2022/05/19 05:06:18;;;;;;;8.40;7.50;;;;;;;20.10;84.66;99577.97;5073010;28;20893;-76
2022/05/19 05:08:45;;;;;;;7.97;7.17;;;;;;;20.10;85.07;99576.13;5072953;28;20435;-74
2022/05/19 05:11:12;;;;;;;8.77;6.67;;;;;;;20.22;84.34;99582.25;5071478;28;20427;-77
2022/05/19 05:13:38;;;;;;;13.03;9.47;;;;;;;20.26;84.64;99580.06;5071474;28;20913;-76
2022/05/19 05:16:06;;;;;;;10.70;7.70;;;;;;;20.05;86.33;99581.16;5072362;28;20468;-76
2022/05/19 05:18:32;;;;;;;8.30;7.50;;;;;;;20.09;86.61;99587.22;5072373;28;20431;-77
2022/05/19 05:21:05;;;;;;;8.50;7.50;;;;;;;20.35;84.58;99592.81;5072144;28;20800;-76
2022/05/19 05:23:32;;;;;;;12.50;9.30;;;;;;;20.50;83.46;99598.66;5072284;28;20436;-77
2022/05/19 05:25:59;;;;;;;8.47;7.43;;;;;;;20.52;82.87;99596.63;5072063;28;20424;-77
2022/05/19 05:28:31;;;;;;;10.30;7.47;;;;;;;20.48;83.45;99596.06;5072461;28;20439;-76
2022/05/19 05:30:58;;;;;;;8.83;7.33;;;;;;;20.48;83.62;99596.06;5072279;28;20565;-76
2022/05/19 05:33:24;;;;;;;9.13;8.23;;;;;;;20.59;83.36;99592.28;5072020;28;20434;-77
2022/05/19 05:35:51;;;;;;;8.07;7.00;;;;;;;20.58;83.32;99591.44;5072446;28;20965;-76
2022/05/19 05:38:22;;;;;;;9.23;8.00;;;;;;;20.53;83.10;99593.75;5072663;28;20480;-77
2022/05/19 05:40:50;;;;;;;9.47;8.47;;;;;;;20.56;83.61;99593.47;5073512;28;20419;-74
2022/05/19 05:43:18;;;;;;;12.30;9.73;;;;;;;20.89;81.78;99590.22;5074113;28;20917;-76
2022/05/19 05:45:46;;;;;;;9.70;7.67;;;;;;;20.99;80.33;99596.47;5073990;28;20780;-76
2022/05/19 05:48:14;;;;;;;8.30;7.60;;;;;;;21.11;79.77;99594.38;5072022;28;20441;-76
2022/05/19 05:50:41;;;;;;;9.60;8.60;;;;;;;21.28;78.41;99588.03;5072278;28;20582;-76
2022/05/19 05:53:09;;;;;;;11.57;8.30;;;;;;;21.53;77.45;99599.22;5072274;28;20427;-76
2022/05/19 05:55:39;;;;;;;10.67;8.70;;;;;;;21.58;76.29;99607.81;5071968;28;20440;-76
2022/05/19 05:58:07;;;;;;;12.97;10.90;;;;;;;21.74;75.67;99605.16;5072301;28;20893;-76
2022/05/19 06:00:33;;;;;;;8.47;7.60;;;;;;;21.86;74.53;99603.88;5071800;28;20445;-76
2022/05/19 06:03:00;;;;;;;8.57;6.97;;;;;;;21.75;75.13;99592.31;5072837;28;20416;-75
2022/05/19 06:05:26;;;;;;;9.97;7.20;;;;;;;21.79;74.91;99594.56;5072552;28;20435;-77
2022/05/19 06:07:55;;;;;;;9.97;7.10;;;;;;;21.77;75.25;99601.25;5071966;28;20857;-76
2022/05/19 06:10:22;;;;;;;7.27;6.57;;;;;;;21.98;75.08;99598.09;5073189;28;20815;-76
2022/05/19 06:12:50;;;;;;;14.23;12.80;;;;;;;22.12;74.55;99605.75;5072275;28;20445;-76
2022/05/19 06:15:17;;;;;;;10.50;7.63;;;;;;;22.25;72.63;99610.78;5072163;28;20451;-76
2022/05/19 06:17:43;;;;;;;13.30;7.90;;;;;;;22.27;72.70;99601.41;5072368;28;20465;-76
2022/05/19 06:20:15;;;;;;;9.17;7.20;;;;;;;22.20;72.68;99605.78;5072791;28;20419;-76
2022/05/19 06:22:42;;;;;;;8.53;7.67;;;;;;;22.22;72.94;99609.25;5072258;28;20431;-76
2022/05/19 06:25:10;;;;;;;9.60;8.60;;;;;;;22.41;72.12;99618.25;5072801;28;20911;-76
2022/05/19 06:27:38;;;;;;;7.50;6.67;;;;;;;22.09;73.24;99608.78;5072579;28;20510;-77
2022/05/19 06:30:08;;;;;;;8.63;7.50;;;;;;;22.05;74.11;99607.44;5072772;28;20999;-76
2022/05/19 06:32:34;;;;;;;9.67;6.70;;;;;;;22.19;73.80;99608.69;5072259;28;20412;-76
2022/05/19 06:35:01;;;;;;;9.80;6.37;;;;;;;22.37;72.69;99620.47;5073265;28;20854;-77
2022/05/19 06:37:27;;;;;;;17.40;11.03;;;;;;;22.13;74.02;99620.31;5073679;28;20520;-76
2022/05/19 06:39:54;;;;;;;8.93;6.93;;;;;;;22.23;73.67;99621.09;5074272;28;20433;-77
2022/05/19 06:42:21;;;;;;;6.67;5.97;;;;;;;22.46;72.31;99629.59;5074637;28;20908;-77
2022/05/19 06:44:48;;;;;;;7.20;6.50;;;;;;;22.67;71.00;99630.00;5077259;28;20512;-77
2022/05/19 06:47:16;;;;;;;11.00;6.87;;;;;;;22.76;71.02;99625.41;5072996;28;20944;-77
2022/05/19 06:49:43;;;;;;;7.10;6.40;;;;;;;22.73;70.59;99638.63;5072222;28;20561;-77
2022/05/19 06:52:13;;;;;;;7.90;7.10;;;;;;;22.75;71.01;99631.06;5071801;28;20920;-76
2022/05/19 06:54:40;;;;;;;13.57;10.10;;;;;;;23.06;69.40;99623.94;5072402;28;20429;-76
2022/05/19 06:57:07;;;;;;;9.57;7.40;;;;;;;23.31;68.35;99624.88;5072194;28;20787;-76
2022/05/19 06:59:33;;;;;;;8.80;6.43;;;;;;;23.61;66.11;99638.94;5072042;28;20443;-76
2022/05/19 07:02:01;;;;;;;6.03;5.40;;;;;;;23.89;63.02;99638.59;5072637;28;20512;-74
2022/05/19 07:04:28;;;;;;;7.27;6.13;;;;;;;24.05;62.55;99651.47;5072239;28;20430;-76
2022/05/19 07:06:55;;;;;;;9.03;6.23;;;;;;;24.22;62.27;99641.25;5072046;28;20901;-76
2022/05/19 07:09:22;;;;;;;7.97;6.50;;;;;;;24.39;62.09;99640.19;5072373;28;20789;-76
2022/05/19 07:11:48;;;;;;;6.97;5.37;;;;;;;24.55;61.11;99636.56;5072472;28;20775;-77
2022/05/19 07:14:15;;;;;;;7.70;6.30;;;;;;;24.62;60.76;99631.19;5072743;28;20786;-76
2022/05/19 07:16:44;;;;;;;6.77;6.17;;;;;;;24.78;60.47;99633.84;5072519;28;20427;-76
2022/05/19 07:21:57;;;;;;;6.30;5.70;;;;;;;24.80;59.36;99634.53;5075818;28;20410;-76
2022/05/19 07:24:24;;;;;;;7.77;5.40;;;;;;;24.87;59.78;99632.75;5075523;28;20429;-76
2022/05/19 07:26:54;;;;;;;10.90;5.60;;;;;;;25.23;56.64;99626.72;5075302;28;20456;-76
2022/05/19 07:29:21;;;;;;;7.20;5.87;;;;;;;25.25;56.33;99643.06;5075497;28;20748;-75
2022/05/19 07:31:49;;;;;;;9.43;5.90;;;;;;;25.38;56.24;99637.81;5075358;28;20419;-76
2022/05/19 07:34:19;;;;;;;11.30;5.80;;;;;;;25.49;55.58;99631.88;5075103;28;20976;-76
2022/05/19 07:36:46;;;;;;;6.27;5.67;;;;;;;25.38;56.16;99626.78;5074668;28;20450;-76
2022/05/19 07:39:14;;;;;;;9.43;6.03;;;;;;;25.48;55.91;99627.38;5075238;28;20450;-76
2022/05/19 07:41:41;;;;;;;5.47;4.97;;;;;;;25.57;55.85;99640.09;5075274;28;20426;-77
2022/05/19 07:44:08;;;;;;;7.53;5.60;;;;;;;25.77;54.94;99634.03;5075844;28;20447;-77
2022/05/19 07:46:36;;;;;;;8.87;5.67;;;;;;;25.89;54.91;99631.69;5075131;28;20418;-77
2022/05/19 07:49:02;;;;;;;8.20;5.70;;;;;;;25.93;55.10;99620.09;5075637;28;20423;-76
2022/05/19 07:51:36;;;;;;;8.13;7.03;;;;;;;26.15;54.62;99628.50;5075104;28;20572;-76
2022/05/19 07:54:04;;;;;;;6.73;5.00;;;;;;;26.44;53.84;99629.56;5075327;28;20434;-76
2022/05/19 07:56:32;;;;;;;5.63;5.13;;;;;;;26.79;52.99;99633.44;5075244;28;20439;-77
2022/05/19 07:58:59;;;;;;;9.67;5.30;;;;;;;27.05;52.59;99632.91;5075814;28;20505;-76
2022/05/19 08:01:26;;;;;;;7.80;5.43;;;;;;;27.08;52.59;99626.13;5075352;28;20939;-76
2022/05/19 08:03:52;;;;;;;7.57;5.40;;;;;;;27.32;52.37;99625.78;5075458;28;20819;-77
2022/05/19 08:06:19;;;;;;;8.07;4.30;;;;;;;27.56;51.39;99618.97;5075168;28;20427;-77
2022/05/19 08:08:45;;;;;;;6.03;5.43;;;;;;;27.62;51.48;99620.13;5075369;28;20445;-77
2022/05/19 08:11:12;;;;;;;7.63;5.13;;;;;;;27.70;51.39;99608.03;5075274;28;20463;-76
2022/05/19 08:16:24;;;;;;;5.70;4.90;;;;;;;27.89;50.87;99625.91;5074797;28;20463;-77
2022/05/19 08:18:51;;;;;;;5.87;5.23;;;;;;;28.02;50.84;99626.00;5075475;28;20781;-76
2022/05/19 08:21:19;;;;;;;7.83;6.27;;;;;;;28.03;50.99;99623.00;5074975;28;20492;-77
2022/05/19 08:23:48;;;;;;;5.13;4.63;;;;;;;28.05;50.67;99629.22;5075752;28;20439;-77
2022/05/19 08:26:15;;;;;;;8.33;5.00;;;;;;;28.02;51.31;99628.78;5074765;28;20923;-80
2022/05/19 08:28:44;;;;;;;5.43;4.93;;;;;;;28.19;50.89;99629.31;5072984;28;20443;-81
2022/05/19 08:31:15;;;;;;;6.50;4.70;;;;;;;28.17;50.99;99623.09;5072851;28;20481;-80
2022/05/19 08:33:45;;;;;;;5.70;4.50;;;;;;;27.88;51.98;99626.94;5073468;28;20900;-81
2022/05/19 08:36:12;;;;;;;6.30;4.73;;;;;;;27.81;52.04;99632.38;5073520;28;20431;-81
2022/05/19 08:38:40;;;;;;;8.53;7.40;;;;;;;27.75;52.58;99630.44;5072729;28;20525;-80
2022/05/19 08:41:09;;;;;;;5.57;5.07;;;;;;;28.29;51.56;99635.34;5073356;28;20429;-82
2022/05/19 08:43:42;;;;;;;7.43;5.30;;;;;;;28.63;50.05;99630.88;5073542;28;20427;-81
2022/05/19 08:46:19;;;;;;;7.17;4.60;;;;;;;28.78;49.34;99634.31;5073373;28;20951;-80
2022/05/19 08:48:47;;;;;;;6.63;4.93;;;;;;;28.78;48.96;99627.94;5072909;28;20434;-81
2022/05/19 08:51:16;;;;;;;10.60;5.67;;;;;;;28.71;48.83;99636.22;5072226;28;20487;-80
2022/05/19 08:53:44;;;;;;;5.93;4.57;;;;;;;28.72;48.69;99626.88;5073038;28;20462;-83
2022/05/19 08:56:17;;;;;;;7.07;5.37;;;;;;;28.69;49.16;99628.09;5072792;28;20938;-81
2022/05/19 08:58:58;;;;;;;4.93;4.47;;;;;;;29.20;48.15;99623.22;5072791;28;20427;-81
2022/05/19 09:01:37;;;;;;;5.07;4.40;;;;;;;29.77;46.38;99620.97;5072481;28;20420;-81
2022/05/19 09:04:18;;;;;;;6.37;4.80;;;;;;;30.27;44.44;99613.88;5072708;28;20454;-80
2022/05/19 09:09:58;;;;;;;5.90;4.50;;;;;;;29.89;44.99;99606.19;5072633;28;20504;-81
2022/05/19 09:12:28;;;;;;;5.23;4.20;;;;;;;30.16;44.47;99605.31;5072291;28;20789;-80
2022/05/19 09:14:54;;;;;;;4.47;4.07;;;;;;;30.38;44.12;99605.94;5072256;28;20438;-81
2022/05/19 09:17:27;;;;;;;8.43;7.53;;;;;;;30.10;44.37;99605.13;5072344;28;20449;-79
2022/05/19 09:19:57;;;;;;;6.10;5.13;;;;;;;29.89;44.94;99591.47;5072571;28;20431;-80
2022/05/19 09:22:26;;;;;;;7.97;4.50;;;;;;;29.46;47.61;99589.09;5071900;28;20415;-81
2022/05/19 09:24:54;;;;;;;7.67;5.00;;;;;;;28.93;48.75;99605.63;5072035;28;20443;-80
2022/05/19 09:27:23;;;;;;;5.87;4.30;;;;;;;27.70;50.88;99596.97;5072102;28;20498;-81
2022/05/19 09:29:51;;;;;;;5.70;5.20;;;;;;;27.96;51.78;99599.97;5072263;28;20881;-81
2022/05/19 09:32:24;;;;;;;7.97;6.00;;;;;;;28.21;53.43;99596.75;5071389;28;20443;-82
2022/05/19 09:34:54;;;;;;;6.30;5.27;;;;;;;28.28;53.39;99611.47;5072157;28;20424;-80
2022/05/19 09:37:29;;;;;;;6.23;4.93;;;;;;;28.37;51.89;99604.69;5071971;28;20859;-80
2022/05/19 09:40:08;;;;;;;5.90;4.57;;;;;;;28.56;51.51;99622.53;5072125;28;20419;-81
2022/05/19 09:42:37;;;;;;;7.83;5.50;;;;;;;28.59;51.02;99621.25;5070855;28;20439;-80
2022/05/19 09:45:04;;;;;;;7.73;4.90;;;;;;;28.41;51.34;99630.09;5068388;28;20513;-81
2022/05/19 09:47:35;;;;;;;7.70;4.70;;;;;;;28.14;51.66;99623.53;5072168;28;20442;-80
2022/05/19 09:50:07;;;;;;;4.67;4.13;;;;;;;28.43;51.03;99628.81;5071830;28;20423;-80
2022/05/19 09:52:35;;;;;;;5.43;4.90;;;;;;;28.68;50.23;99617.25;5071638;28;20935;-80
2022/05/19 09:55:06;;;;;;;5.43;3.90;;;;;;;28.97;49.40;99612.44;5071719;28;20466;-80
2022/05/19 09:57:44;;;;;;;6.60;4.57;;;;;;;29.01;49.06;99625.69;5062345;28;20454;-80
2022/05/19 10:00:19;;;;;;;4.73;4.20;;;;;;;28.88;49.14;99625.66;5058202;28;20525;-81
2022/05/19 10:02:50;;;;;;;5.43;4.50;;;;;;;28.93;49.44;99619.47;5071969;28;20434;-80
2022/05/19 10:05:31;;;;;;;6.40;4.53;;;;;;;28.79;49.44;99616.66;5072325;28;20431;-81
2022/05/19 10:08:05;;;;;;;9.70;4.60;;;;;;;28.77;50.35;99624.31;5072372;28;20490;-80
2022/05/19 10:10:35;;;;;;;5.40;4.83;;;;;;;29.00;49.46;99625.91;5071920;28;20498;-80
2022/05/19 10:13:07;;;;;;;6.87;4.30;;;;;;;28.97;49.27;99634.59;5072566;28;20439;-80
2022/05/19 10:16:01;;;;;;;5.87;5.37;;;;;;;29.00;50.00;99636.97;5071822;28;21039;-81
2022/05/19 10:18:51;;;;;;;7.00;4.47;;;;;;;28.89;48.65;99636.50;5059154;28;20451;-80
2022/05/19 10:21:52;;;;;;;8.00;4.93;;;;;;;29.12;48.21;99629.78;5068764;28;20445;-80
2022/05/19 10:24:33;;;;;;;5.37;4.87;;;;;;;29.03;48.81;99640.16;5072335;28;20439;-80
2022/05/19 10:33:02;;;;;;;10.03;5.20;;;;;;;29.22;49.67;99619.16;5071423;28;20935;-81
2022/05/19 10:35:42;;;;;;;12.50;5.20;;;;;;;29.40;48.86;99609.38;5071502;28;20794;-81
2022/05/19 10:38:29;;;;;;;8.77;5.40;;;;;;;29.53;49.21;99612.16;5068159;28;20445;-81
2022/05/19 10:41:07;;;;;;;10.43;6.00;;;;;;;29.54;49.34;99602.78;5070735;28;20442;-81
2022/05/19 10:44:00;;;;;;;6.37;5.70;;;;;;;29.57;49.49;99601.50;5070296;28;20529;-80
2022/05/19 10:46:35;;;;;;;6.30;5.40;;;;;;;29.27;50.32;99610.22;5070552;28;20431;-80
2022/05/19 10:49:36;;;;;;;7.83;5.00;;;;;;;29.48;50.27;99600.84;5069153;28;20454;-80
2022/05/19 10:52:15;;;;;;;5.73;5.00;;;;;;;29.76;49.94;99608.13;5070751;28;20483;-80
2022/05/19 10:54:59;;;;;;;6.00;5.50;;;;;;;29.86;49.55;99606.63;5071711;28;20541;-80
2022/05/19 10:57:45;;;;;;;6.30;5.73;;;;;;;30.11;48.58;99587.38;5067719;28;20900;-79
2022/05/19 11:00:17;;;;;;;8.20;6.73;;;;;;;30.09;48.44;99591.44;5074618;28;20955;-80
2022/05/19 11:03:17;;;;;;;8.43;5.63;;;;;;;30.16;48.44;99588.66;5074832;28;20807;-80
2022/05/19 11:05:50;;;;;;;7.67;5.50;;;;;;;30.27;47.99;99586.09;5069350;28;20955;-81
2022/05/19 11:08:28;;;;;;;9.27;5.97;;;;;;;30.35;48.70;99593.34;5075137;28;20919;-79
2022/05/19 11:11:04;;;;;;;6.10;5.60;;;;;;;30.30;48.16;99585.69;5074698;28;21111;-80
2022/05/19 11:13:58;;;;;;;8.50;5.77;;;;;;;30.61;47.53;99588.75;5066775;28;20430;-79
2022/05/19 11:16:41;;;;;;;7.13;5.03;;;;;;;30.41;48.31;99594.38;5074832;28;20446;-80
2022/05/19 11:19:15;;;;;;;7.17;5.23;;;;;;;30.32;48.24;99593.78;5074259;28;20438;-80
2022/05/19 11:21:46;;;;;;;6.37;5.10;;;;;;;30.37;47.69;99585.66;5074213;28;20521;-80
2022/05/19 11:24:22;;;;;;;10.80;9.70;;;;;;;30.18;48.64;99581.81;5074424;28;20419;-80
2022/05/19 11:26:59;;;;;;;6.13;5.53;;;;;;;29.55;50.48;99585.06;5074220;28;20469;-80
2022/05/19 11:29:32;;;;;;;6.70;5.07;;;;;;;29.81;50.58;99567.59;5074499;28;20443;-80
2022/05/19 11:32:04;;;;;;;5.73;4.97;;;;;;;29.51;51.79;99575.47;5074691;28;21191;-80
2022/05/19 11:34:38;;;;;;;10.03;5.97;;;;;;;29.80;51.38;99573.34;5056234;28;20836;-82
2022/05/19 11:37:15;;;;;;;11.30;5.80;;;;;;;30.29;49.65;99572.00;5068865;28;20466;-82
2022/05/19 11:39:57;;;;;;;9.87;5.70;;;;;;;30.58;48.53;99575.31;5073647;28;20434;-82
2022/05/19 11:42:35;;;;;;;8.03;5.20;;;;;;;29.52;50.77;99564.16;5074506;28;20441;-81
2022/05/19 11:45:04;;;;;;;8.83;5.67;;;;;;;29.22;53.11;99568.41;5074231;28;20454;-83
2022/05/19 11:56:01;;;;;;;5.57;5.00;;;;;;;29.80;50.33;99576.13;5074607;28;20506;-82
2022/05/19 11:58:34;;;;;;;8.17;6.60;;;;;;;29.80;50.59;99573.34;5073366;28;20443;-83
2022/05/19 12:01:06;;;;;;;6.33;5.73;;;;;;;30.02;50.29;99563.69;5073960;28;20461;-83
2022/05/19 12:03:42;;;;;;;9.17;5.00;;;;;;;30.11;50.63;99573.50;5072866;28;20431;-83
2022/05/19 12:06:17;;;;;;;6.03;5.43;;;;;;;30.26;49.99;99586.31;5074039;28;20819;-82
2022/05/19 12:08:56;;;;;;;8.13;5.57;;;;;;;30.55;48.75;99593.25;5074058;28;20430;-83